Armstrong, Illinois
Current Conditions -  °F | °C
As of 10:10 AM on Sunday 23 Nov 2014 (Local Time) from KTIP Reporting Station
Broken Clouds Broken Clouds  
Wind Chill: 53°   Ceiling: 2400
Heat Index: 53°   Visibility: 10mi
Dew Point: 48°   Wind: 12mph
Humidity: 85%   Direction: 170°S
Pressure: 29.72"   Gusts: NA
Location:  40.31°N, 87.88°W
Report Text: KTIP 231610Z AUTO 17010KT 10SM SCT018 BKN024 BKN110 12/09 A2972 RMK AO2 T01160091
Loading
Personal Weather Stations






























Interactive Weather Map New forecast layout! Learn more

10-Day Weather Forecast

Advertisements
Track Severe Weather on mobile